createdAt,value
2018-07-23T00:00:17.612Z,98394.83
2018-07-23T00:02:46.768Z,98390.95
2018-07-23T00:05:16.007Z,98386.13
2018-07-23T00:07:45.311Z,98379.11
2018-07-23T00:10:14.509Z,98380.46
2018-07-23T00:12:43.666Z,98382.67
2018-07-23T00:15:12.902Z,98387.27
2018-07-23T00:17:42.072Z,98379.97
2018-07-23T00:20:11.297Z,98385.06
2018-07-23T00:22:40.457Z,98388.62
2018-07-23T00:25:09.765Z,98383.36
2018-07-23T00:27:38.958Z,98376.73
2018-07-23T00:30:08.230Z,98376.53
2018-07-23T00:32:37.957Z,98373.08
2018-07-23T00:35:07.411Z,98372.65
2018-07-23T00:37:36.544Z,98375.52
2018-07-23T00:40:05.783Z,98374.17
2018-07-23T00:42:35.016Z,98373.68
2018-07-23T00:45:04.388Z,98379.34
2018-07-23T00:47:33.604Z,98376.93
2018-07-23T00:50:02.814Z,98372.33
2018-07-23T00:52:31.985Z,98363.37
2018-07-23T00:55:01.383Z,98368.59
2018-07-23T00:57:30.643Z,98361.27
2018-07-23T01:00:00.035Z,98366.19
2018-07-23T01:02:29.269Z,98367.27
2018-07-23T01:04:58.449Z,98365.20
2018-07-23T01:07:27.628Z,98365.09
2018-07-23T01:09:56.812Z,98359.17
2018-07-23T01:12:29.154Z,98357.22
2018-07-23T01:14:58.329Z,98354.89
2018-07-23T01:17:27.708Z,98357.34
2018-07-23T01:19:57.968Z,98350.30
2018-07-23T01:22:27.956Z,98351.05
2018-07-23T01:24:58.128Z,98354.64
2018-07-23T01:27:27.284Z,98352.68
2018-07-23T01:29:56.536Z,98358.83
2018-07-23T01:32:25.710Z,98351.48
2018-07-23T01:34:54.906Z,98356.99
2018-07-23T01:37:24.048Z,98355.13
2018-07-23T01:39:53.420Z,98367.05
2018-07-23T01:42:22.733Z,98361.16
2018-07-23T01:44:52.668Z,98364.95
2018-07-23T01:47:21.823Z,98358.08
2018-07-23T01:49:51.001Z,98356.30
2018-07-23T01:52:20.333Z,98361.95
2018-07-23T01:54:49.562Z,98365.78
2018-07-23T01:57:18.846Z,98363.08
2018-07-23T01:59:48.082Z,98373.62
2018-07-23T02:02:17.251Z,98369.08
2018-07-23T02:04:46.469Z,98370.98
2018-07-23T02:07:15.626Z,98372.06
2018-07-23T02:09:44.818Z,98375.57
2018-07-23T02:12:14.098Z,98374.48
2018-07-23T02:14:43.268Z,98369.83
2018-07-23T02:17:12.441Z,98377.67
2018-07-23T02:19:41.667Z,98372.02
2018-07-23T02:22:10.878Z,98372.76
2018-07-23T02:24:40.051Z,98364.17
2018-07-23T02:27:09.392Z,98363.91
2018-07-23T02:29:38.557Z,98366.01
2018-07-23T02:32:07.762Z,98367.12
2018-07-23T02:34:36.984Z,98368.48
2018-07-23T02:37:06.434Z,98366.79
2018-07-23T02:39:36.114Z,98371.09
2018-07-23T02:42:05.711Z,98368.69
2018-07-23T02:44:34.902Z,98362.25
2018-07-23T02:47:04.058Z,98363.31
2018-07-23T02:49:33.257Z,98360.06
2018-07-23T02:52:02.445Z,98360.35
2018-07-23T02:54:31.599Z,98358.71
2018-07-23T02:57:01.504Z,98364.11
2018-07-23T02:59:31.042Z,98361.73
2018-07-23T03:02:00.241Z,98367.91
2018-07-23T03:04:29.393Z,98364.66
2018-07-23T03:06:58.576Z,98371.16
2018-07-23T03:09:27.734Z,98369.26
2018-07-23T03:11:56.982Z,98367.91
2018-07-23T03:14:26.176Z,98362.19
2018-07-23T03:16:55.409Z,98364.09
2018-07-23T03:19:24.615Z,98371.91
2018-07-23T03:21:53.826Z,98368.08
2018-07-23T03:24:23.018Z,98369.20
2018-07-23T03:26:52.497Z,98371.84
2018-07-23T03:29:21.618Z,98373.20
2018-07-23T03:31:51.442Z,98376.44
2018-07-23T03:34:20.729Z,98379.95
2018-07-23T03:36:49.944Z,98379.03
2018-07-23T03:39:19.108Z,98386.33
2018-07-23T03:41:48.293Z,98379.34
2018-07-23T03:44:17.473Z,98379.89
2018-07-23T03:46:46.630Z,98380.92
2018-07-23T03:49:15.834Z,98379.83
2018-07-23T03:51:45.024Z,98375.41
2018-07-23T03:54:14.225Z,98377.16
2018-07-23T03:56:43.425Z,98379.39
2018-07-23T03:59:12.598Z,98384.45
2018-07-23T04:01:41.740Z,98375.55
2018-07-23T04:04:10.973Z,98382.56
2018-07-23T04:06:40.131Z,98386.61
2018-07-23T04:09:09.517Z,98389.80
2018-07-23T04:11:38.716Z,98391.09
2018-07-23T04:14:07.936Z,98388.16
2018-07-23T04:16:37.094Z,98387.36
2018-07-23T04:19:06.487Z,98388.10
2018-07-23T04:21:35.713Z,98392.16
2018-07-23T04:24:04.964Z,98395.20
2018-07-23T04:26:34.148Z,98397.04
2018-07-23T04:29:03.333Z,98395.66
2018-07-23T04:31:32.494Z,98399.08
2018-07-23T04:34:01.649Z,98396.15
2018-07-23T04:36:30.826Z,98400.75
2018-07-23T04:39:00.078Z,98403.45
2018-07-23T04:41:29.289Z,98406.95
2018-07-23T04:43:59.061Z,98410.34
2018-07-23T04:46:28.269Z,98403.27
2018-07-23T04:48:57.501Z,98412.73
2018-07-23T04:51:26.692Z,98410.57
2018-07-23T04:53:55.856Z,98413.47
2018-07-23T04:56:25.057Z,98415.02
2018-07-23T04:58:54.237Z,98414.48
2018-07-23T05:01:23.477Z,98419.82
2018-07-23T05:03:52.674Z,98422.27
2018-07-23T05:06:21.852Z,98422.12
2018-07-23T05:08:51.085Z,98421.11
2018-07-23T05:11:20.289Z,98424.08
2018-07-23T05:13:49.461Z,98426.95
2018-07-23T05:16:18.634Z,98434.22
2018-07-23T05:18:47.812Z,98433.23
2018-07-23T05:21:17.042Z,98437.89
2018-07-23T05:23:46.257Z,98429.18
2018-07-23T05:26:15.400Z,98440.59
2018-07-23T05:28:44.533Z,98435.45
2018-07-23T05:31:13.689Z,98436.20
2018-07-23T05:33:42.846Z,98440.05
2018-07-23T05:36:12.017Z,98437.41
2018-07-23T05:38:41.209Z,98437.66
2018-07-23T05:41:10.441Z,98436.67
2018-07-23T05:43:39.573Z,98432.97
2018-07-23T05:46:08.747Z,98450.00
2018-07-23T05:48:37.924Z,98443.78
2018-07-23T05:51:07.255Z,98447.84
2018-07-23T05:53:36.453Z,98446.89
2018-07-23T05:56:06.088Z,98452.64
2018-07-23T05:58:35.232Z,98452.41
2018-07-23T06:01:05.428Z,98457.98
2018-07-23T06:03:36.328Z,98460.46
2018-07-23T06:06:05.581Z,98464.08
2018-07-23T06:08:34.789Z,98464.08
2018-07-23T06:11:03.984Z,98468.39
2018-07-23T06:13:33.492Z,98469.48
2018-07-23T06:16:03.583Z,98468.59
2018-07-23T06:18:32.860Z,98474.05
2018-07-23T06:21:02.054Z,98474.89
2018-07-23T06:23:31.298Z,98471.09
2018-07-23T06:26:00.501Z,98483.14
2018-07-23T06:28:29.665Z,98478.48
2018-07-23T06:30:58.868Z,98460.90
2018-07-23T06:33:28.068Z,98454.88
2018-07-23T06:35:57.256Z,98467.19
2018-07-23T06:38:26.461Z,98455.36
2018-07-23T06:40:55.717Z,98478.55
2018-07-23T06:43:24.941Z,98474.95
2018-07-23T06:45:54.149Z,98484.00
2018-07-23T06:48:23.326Z,98488.48
2018-07-23T06:50:52.496Z,98492.18
2018-07-23T06:53:21.720Z,98497.92
2018-07-23T06:55:50.881Z,98501.11
2018-07-23T06:58:20.148Z,98499.08
2018-07-23T07:00:49.322Z,98502.65
2018-07-23T07:03:18.574Z,98506.06
2018-07-23T07:05:47.667Z,98493.27
2018-07-23T07:08:16.917Z,98503.41
2018-07-23T07:10:46.093Z,98502.11
2018-07-23T07:13:15.278Z,98502.09
2018-07-23T07:15:44.468Z,98508.37
2018-07-23T07:18:13.663Z,98503.06
2018-07-23T07:20:42.825Z,98510.39
2018-07-23T07:23:12.014Z,98515.59
2018-07-23T07:25:41.226Z,98512.63
2018-07-23T07:28:10.451Z,98512.22
2018-07-23T07:30:40.829Z,98506.08
2018-07-23T07:33:11.041Z,98494.32
2018-07-23T07:35:40.212Z,98511.50
2018-07-23T07:38:09.428Z,98500.11
2018-07-23T07:40:38.743Z,98494.13
2018-07-23T07:43:08.094Z,98498.93
2018-07-23T07:45:37.445Z,98493.61
2018-07-23T07:48:06.796Z,98502.95
2018-07-23T07:50:35.960Z,98504.16
2018-07-23T07:53:05.211Z,98507.19
2018-07-23T07:55:34.355Z,98507.14
2018-07-23T07:58:03.587Z,98509.88
2018-07-23T08:00:32.778Z,98507.67
2018-07-23T08:03:01.900Z,98515.19
2018-07-23T08:05:31.077Z,98516.71
2018-07-23T08:08:00.240Z,98515.69
2018-07-23T08:10:29.421Z,98515.98
2018-07-23T08:12:58.643Z,98523.02
2018-07-23T08:15:27.846Z,98519.98
2018-07-23T08:17:57.074Z,98516.96
2018-07-23T08:20:26.215Z,98523.03
2018-07-23T08:22:55.388Z,98521.36
2018-07-23T08:25:24.576Z,98521.06
2018-07-23T08:27:53.825Z,98523.11
2018-07-23T08:30:22.944Z,98522.39
2018-07-23T08:32:52.195Z,98531.03
2018-07-23T08:35:22.932Z,98528.45
2018-07-23T08:37:52.150Z,98526.08
2018-07-23T08:40:21.340Z,98527.27
2018-07-23T08:42:50.536Z,98532.14
2018-07-23T08:45:19.723Z,98533.02
2018-07-23T08:47:48.845Z,98530.22
2018-07-23T08:50:18.006Z,98530.69
2018-07-23T08:52:47.162Z,98537.41
2018-07-23T08:55:16.365Z,98538.59
2018-07-23T08:57:45.571Z,98538.02
2018-07-23T09:03:17.753Z,98538.33
2018-07-23T09:05:46.898Z,98530.72
2018-07-23T09:08:16.031Z,98530.58
2018-07-23T09:10:45.190Z,98526.20
2018-07-23T09:13:14.308Z,98525.25
2018-07-23T09:15:43.539Z,98530.19
2018-07-23T09:18:12.841Z,98529.05
2018-07-23T09:20:42.003Z,98529.36
2018-07-23T09:23:11.133Z,98531.84
2018-07-23T09:25:46.629Z,98525.91
2018-07-23T09:28:16.996Z,98528.63
2018-07-23T09:30:51.587Z,98530.02
2018-07-23T09:33:22.070Z,98522.64
2018-07-23T09:35:51.906Z,98526.73
2018-07-23T09:38:21.897Z,98520.11
2018-07-23T09:40:51.243Z,98519.55
2018-07-23T09:43:20.385Z,98519.11
2018-07-23T09:45:50.572Z,98517.30
2018-07-23T09:48:19.674Z,98514.95
2018-07-23T09:50:48.816Z,98514.43
2018-07-23T09:53:17.993Z,98510.01
2018-07-23T09:55:47.141Z,98512.02
2018-07-23T09:58:16.282Z,98511.48
2018-07-23T10:00:50.841Z,98502.30
2018-07-23T10:03:20.056Z,98508.07
2018-07-23T10:05:49.110Z,98501.17
2018-07-23T10:08:18.266Z,98495.91
2018-07-23T10:10:47.434Z,98493.60
2018-07-23T10:13:16.568Z,98490.17
2018-07-23T10:15:45.728Z,98486.94
2018-07-23T10:18:14.845Z,98491.04
2018-07-23T10:20:44.080Z,98485.60
2018-07-23T10:23:13.238Z,98492.07
2018-07-23T10:25:42.340Z,98486.50
2018-07-23T10:28:11.466Z,98484.77
2018-07-23T10:30:40.645Z,98486.60
2018-07-23T10:33:09.813Z,98473.32
2018-07-23T10:35:39.460Z,98479.30
2018-07-23T10:38:08.618Z,98475.83
2018-07-23T10:40:37.728Z,98480.73
2018-07-23T10:43:07.001Z,98470.06
2018-07-23T10:45:36.179Z,98471.81
2018-07-23T10:48:05.414Z,98470.02
2018-07-23T10:50:34.644Z,98471.39
2018-07-23T10:53:03.773Z,98469.85
2018-07-23T10:55:32.934Z,98479.27
2018-07-23T10:58:02.098Z,98463.09
2018-07-23T11:00:31.232Z,98459.58
2018-07-23T11:03:00.341Z,98460.97
2018-07-23T11:05:29.509Z,98453.26
2018-07-23T11:07:58.633Z,98459.30
2018-07-23T11:10:27.783Z,98455.53
2018-07-23T11:12:56.934Z,98447.42
2018-07-23T11:15:26.077Z,98446.58
2018-07-23T11:17:55.173Z,98450.30
2018-07-23T11:20:24.277Z,98449.20
2018-07-23T11:22:53.487Z,98439.58
2018-07-23T11:25:38.874Z,98440.77
2018-07-23T11:27:51.809Z,98442.80
2018-07-23T11:30:20.965Z,98447.75
2018-07-23T11:32:51.834Z,98441.55
2018-07-23T11:35:20.960Z,98440.34
2018-07-23T11:37:50.660Z,98439.16
2018-07-23T11:40:19.808Z,98434.64
2018-07-23T11:42:49.065Z,98428.09
2018-07-23T11:45:18.183Z,98425.00
2018-07-23T11:47:47.350Z,98425.66
2018-07-23T11:50:16.504Z,98414.57
2018-07-23T11:52:45.648Z,98416.48
2018-07-23T11:55:14.763Z,98410.95
2018-07-23T11:57:43.867Z,98414.49
2018-07-23T12:00:12.982Z,98410.67
2018-07-23T12:02:42.079Z,98409.17
2018-07-23T12:05:11.837Z,98405.05
2018-07-23T12:07:40.960Z,98400.20
2018-07-23T12:10:10.040Z,98393.13
2018-07-23T12:12:39.210Z,98392.10
2018-07-23T12:15:08.548Z,98394.00
2018-07-23T12:17:37.672Z,98390.27
2018-07-23T12:20:06.789Z,98387.07
2018-07-23T12:22:35.917Z,98384.19
2018-07-23T12:25:05.160Z,98377.84
2018-07-23T12:27:34.395Z,98380.22
2018-07-23T12:30:03.633Z,98379.27
2018-07-23T12:32:32.910Z,98379.45
2018-07-23T12:35:02.016Z,98367.86
2018-07-23T12:37:31.226Z,98373.14
2018-07-23T12:40:00.422Z,98369.97
2018-07-23T12:42:29.544Z,98371.91
2018-07-23T12:44:58.669Z,98365.70
2018-07-23T12:47:27.772Z,98366.72
2018-07-23T12:49:56.921Z,98367.59
2018-07-23T12:52:26.010Z,98367.09
2018-07-23T12:54:55.118Z,98372.41
2018-07-23T12:57:24.278Z,98362.81
2018-07-23T12:59:53.411Z,98370.05
2018-07-23T13:02:22.534Z,98368.41
2018-07-23T13:04:51.669Z,98365.59
2018-07-23T13:07:20.786Z,98365.41
2018-07-23T13:09:49.905Z,98358.77
2018-07-23T13:12:18.993Z,98354.96
2018-07-23T13:14:48.257Z,98351.42
2018-07-23T13:17:17.305Z,98354.13
2018-07-23T13:19:46.463Z,98351.27
2018-07-23T13:22:15.606Z,98349.68
2018-07-23T13:24:44.706Z,98351.73
2018-07-23T13:27:13.788Z,98349.05
2018-07-23T13:29:42.895Z,98348.98
2018-07-23T13:32:12.120Z,98338.80
2018-07-23T13:34:41.234Z,98333.63
2018-07-23T13:37:10.426Z,98327.81
2018-07-23T13:39:39.527Z,98329.03
2018-07-23T13:42:08.665Z,98322.91
2018-07-23T13:44:37.817Z,98322.02
2018-07-23T13:47:07.011Z,98327.88
2018-07-23T13:49:36.132Z,98324.58
2018-07-23T13:52:06.338Z,98323.98
2018-07-23T13:54:35.449Z,98325.22
2018-07-23T13:57:04.636Z,98328.80
2018-07-23T13:59:33.799Z,98326.60
2018-07-23T14:02:02.943Z,98324.17
2018-07-23T14:04:32.074Z,98321.71
2018-07-23T14:07:01.282Z,98322.55
2018-07-23T14:09:30.425Z,98324.95
2018-07-23T14:11:59.529Z,98331.39
2018-07-23T14:14:28.707Z,98323.34
2018-07-23T14:16:57.882Z,98313.94
2018-07-23T14:19:27.060Z,98318.30
2018-07-23T14:21:56.167Z,98300.82
2018-07-23T14:24:25.301Z,98299.34
2018-07-23T14:26:54.390Z,98298.47
2018-07-23T14:29:23.519Z,98299.48
2018-07-23T14:31:52.829Z,98293.34
2018-07-23T14:34:21.973Z,98302.05
2018-07-23T14:36:51.493Z,98303.89
2018-07-23T14:39:20.763Z,98300.42
2018-07-23T14:41:49.886Z,98305.12
2018-07-23T14:44:19.054Z,98307.36
2018-07-23T14:46:48.182Z,98306.47
2018-07-23T14:49:17.266Z,98302.83
2018-07-23T14:51:46.551Z,98291.77
2018-07-23T14:54:15.615Z,98294.11
2018-07-23T14:56:44.770Z,98298.52
2018-07-23T14:59:13.960Z,98300.39
2018-07-23T15:01:43.056Z,98299.73
2018-07-23T15:04:12.186Z,98303.11
2018-07-23T15:06:41.322Z,98291.88
2018-07-23T15:09:11.423Z,98293.80
2018-07-23T15:11:40.516Z,98292.14
2018-07-23T15:14:09.822Z,98302.84
2018-07-23T15:16:39.015Z,98304.64
2018-07-23T15:19:08.343Z,98297.31
2018-07-23T15:21:37.825Z,98294.84
2018-07-23T15:24:07.016Z,98290.81
2018-07-23T15:26:36.221Z,98286.22
2018-07-23T15:29:05.389Z,98287.38
2018-07-23T15:31:35.009Z,98292.44
2018-07-23T15:34:04.120Z,98292.73
2018-07-23T15:36:33.278Z,98298.15
2018-07-23T15:39:02.375Z,98309.05
2018-07-23T15:41:31.465Z,98306.03
2018-07-23T15:44:00.695Z,98303.11
2018-07-23T15:46:29.797Z,98304.70
2018-07-23T15:48:58.851Z,98308.34
2018-07-23T15:51:27.977Z,98305.96
2018-07-23T15:53:57.270Z,98310.09
2018-07-23T15:56:26.429Z,98324.05
2018-07-23T15:58:55.580Z,98328.84
2018-07-23T16:01:24.873Z,98325.36
2018-07-23T16:03:54.037Z,98332.37
2018-07-23T16:06:23.169Z,98330.75
2018-07-23T16:08:52.353Z,98338.44
2018-07-23T16:11:21.442Z,98337.80
2018-07-23T16:13:50.732Z,98333.58
2018-07-23T16:16:20.159Z,98346.12
2018-07-23T16:18:49.440Z,98354.30
2018-07-23T16:21:18.614Z,98353.16
2018-07-23T16:23:47.727Z,98350.22
2018-07-23T16:26:16.876Z,98360.45
2018-07-23T16:28:45.944Z,98355.20
2018-07-23T16:31:15.049Z,98358.28
2018-07-23T16:33:44.245Z,98361.89
2018-07-23T16:36:13.504Z,98365.42
2018-07-23T16:38:42.676Z,98354.75
2018-07-23T16:41:11.768Z,98358.69
2018-07-23T16:43:41.270Z,98358.73
2018-07-23T16:46:10.589Z,98361.56
2018-07-23T16:48:39.699Z,98362.98
2018-07-23T16:51:08.977Z,98364.55
2018-07-23T16:53:38.073Z,98364.20
2018-07-23T16:56:07.244Z,98370.25
2018-07-23T16:58:36.377Z,98369.97
2018-07-23T17:01:05.501Z,98375.69
2018-07-23T17:03:34.644Z,98378.76
2018-07-23T17:06:04.094Z,98381.48
2018-07-23T17:08:34.866Z,98376.15
2018-07-23T17:11:04.063Z,98376.73
2018-07-23T17:13:33.145Z,98375.50
2018-07-23T17:16:02.232Z,98371.38
2018-07-23T17:18:31.360Z,98374.86
2018-07-23T17:21:00.532Z,98387.03
2018-07-23T17:23:29.787Z,98388.41
2018-07-23T17:25:58.895Z,98392.20
2018-07-23T17:28:28.033Z,98394.38
2018-07-23T17:30:57.144Z,98406.70
2018-07-23T17:33:26.236Z,98403.94
2018-07-23T17:35:55.464Z,98414.23
2018-07-23T17:38:24.608Z,98416.34
2018-07-23T17:40:53.695Z,98422.27
2018-07-23T17:43:22.901Z,98426.88
2018-07-23T17:45:52.029Z,98435.32
2018-07-23T17:48:21.156Z,98434.68
2018-07-23T17:50:50.272Z,98441.64
2018-07-23T17:53:19.377Z,98446.47
2018-07-23T17:55:48.467Z,98442.48
2018-07-23T17:58:17.600Z,98452.95
2018-07-23T18:00:46.740Z,98452.75
2018-07-23T18:03:16.847Z,98455.47
2018-07-23T18:05:46.001Z,98454.67
2018-07-23T18:08:15.112Z,98449.56
2018-07-23T18:10:44.250Z,98458.88
2018-07-23T18:13:13.348Z,98465.68
2018-07-23T18:15:42.486Z,98461.83
2018-07-23T18:18:11.617Z,98465.33
2018-07-23T18:20:40.767Z,98471.30
2018-07-23T18:23:10.090Z,98467.19
2018-07-23T18:25:39.215Z,98470.48
2018-07-23T18:28:08.433Z,98471.45
2018-07-23T18:30:37.533Z,98468.04
2018-07-23T18:33:06.764Z,98474.85
2018-07-23T18:35:35.920Z,98475.28
2018-07-23T18:38:05.196Z,98486.66
2018-07-23T18:40:34.260Z,98486.44
2018-07-23T18:43:03.457Z,98493.86
2018-07-23T18:45:32.602Z,98491.21
2018-07-23T18:48:01.689Z,98499.24
2018-07-23T18:50:30.824Z,98498.58
2018-07-23T18:52:59.920Z,98497.88
2018-07-23T18:55:29.013Z,98509.95
2018-07-23T18:57:58.163Z,98513.69
2018-07-23T19:00:27.298Z,98514.35
2018-07-23T19:02:56.424Z,98520.05
2018-07-23T19:05:25.544Z,98524.78
2018-07-23T19:07:54.669Z,98526.39
2018-07-23T19:10:23.761Z,98531.34
2018-07-23T19:12:52.903Z,98532.34
2018-07-23T19:15:21.996Z,98539.44
2018-07-23T19:17:51.090Z,98536.98
2018-07-23T19:20:20.259Z,98541.08
2018-07-23T19:22:49.326Z,98544.70
2018-07-23T19:25:18.416Z,98545.91
2018-07-23T19:27:47.563Z,98551.66
2018-07-23T19:30:16.816Z,98557.34
2018-07-23T19:32:45.935Z,98559.02
2018-07-23T19:35:15.161Z,98560.02
2018-07-23T19:37:44.336Z,98565.67
2018-07-23T19:40:13.577Z,98570.90
2018-07-23T19:42:42.702Z,98568.64
2018-07-23T19:45:11.793Z,98572.02
2018-07-23T19:47:40.981Z,98577.89
2018-07-23T19:50:10.080Z,98569.68
2018-07-23T19:52:39.196Z,98571.94
2018-07-23T19:55:08.524Z,98582.77
2018-07-23T19:57:37.765Z,98573.90
2018-07-23T20:00:06.878Z,98576.56
2018-07-23T20:02:35.973Z,98579.28
2018-07-23T20:05:05.196Z,98574.50
2018-07-23T20:07:34.320Z,98575.39
2018-07-23T20:10:03.496Z,98570.36
2018-07-23T20:12:32.651Z,98574.30
2018-07-23T20:15:01.751Z,98573.78
2018-07-23T20:17:30.883Z,98577.16
2018-07-23T20:20:00.027Z,98575.89
2018-07-23T20:22:29.184Z,98580.86
2018-07-23T20:24:58.280Z,98576.51
2018-07-23T20:27:27.413Z,98568.38
2018-07-23T20:29:57.075Z,98580.61
2018-07-23T20:32:26.224Z,98577.28
2018-07-23T20:34:55.643Z,98580.34
2018-07-23T20:37:24.742Z,98589.14
2018-07-23T20:39:53.901Z,98583.36
2018-07-23T20:42:23.446Z,98573.08
2018-07-23T20:44:53.682Z,98577.37
2018-07-23T20:47:22.855Z,98572.12
2018-07-23T20:49:52.096Z,98576.66
2018-07-23T20:52:21.200Z,98576.63
2018-07-23T20:54:50.353Z,98579.89
2018-07-23T20:57:19.512Z,98582.61
2018-07-23T20:59:48.605Z,98584.92
2018-07-23T21:02:17.872Z,98584.17
2018-07-23T21:04:46.968Z,98582.92
2018-07-23T21:07:16.065Z,98583.44
2018-07-23T21:09:45.732Z,98589.27
2018-07-23T21:12:16.626Z,98599.11
2018-07-23T21:14:47.745Z,98600.41
2018-07-23T21:17:16.967Z,98599.52
2018-07-23T21:19:46.109Z,98602.58
2018-07-23T21:22:15.307Z,98609.91
2018-07-23T21:24:44.369Z,98606.40
2018-07-23T21:27:13.565Z,98600.03
2018-07-23T21:29:43.007Z,98602.66
2018-07-23T21:32:12.211Z,98604.65
2018-07-23T21:34:41.304Z,98612.89
2018-07-23T21:37:11.171Z,98611.11
2018-07-23T21:39:40.321Z,98608.48
2018-07-23T21:42:09.505Z,98614.37
2018-07-23T21:44:38.670Z,98613.28
2018-07-23T21:47:07.950Z,98613.36
2018-07-23T21:49:37.129Z,98622.95
2018-07-23T21:52:06.251Z,98622.41
2018-07-23T21:54:35.374Z,98628.14
2018-07-23T21:57:04.556Z,98625.50
2018-07-23T21:59:33.738Z,98624.31
2018-07-23T22:02:03.005Z,98627.92
2018-07-23T22:04:32.207Z,98627.20
2018-07-23T22:07:01.329Z,98625.84
2018-07-23T22:09:30.488Z,98624.78
2018-07-23T22:11:59.604Z,98626.95
2018-07-23T22:14:28.864Z,98627.55
2018-07-23T22:16:57.991Z,98622.63
2018-07-23T22:19:27.090Z,98623.48
2018-07-23T22:21:56.231Z,98626.02
2018-07-23T22:24:25.429Z,98634.98
2018-07-23T22:26:54.530Z,98625.47
2018-07-23T22:29:23.672Z,98632.04
2018-07-23T22:31:52.791Z,98624.75
2018-07-23T22:34:21.917Z,98624.75
2018-07-23T22:36:51.066Z,98628.69
2018-07-23T22:39:20.168Z,98626.75
2018-07-23T22:41:49.320Z,98632.13
2018-07-23T22:44:18.441Z,98630.52
2018-07-23T22:46:47.529Z,98633.48
2018-07-23T22:49:16.633Z,98627.80
2018-07-23T22:51:45.760Z,98629.80
2018-07-23T22:54:14.948Z,98630.05
2018-07-23T22:56:44.070Z,98626.83
2018-07-23T22:59:13.310Z,98404.09
2018-07-23T23:01:42.409Z,98628.77
2018-07-23T23:04:11.496Z,98631.63
2018-07-23T23:06:40.615Z,98632.55
2018-07-23T23:09:11.459Z,98627.11
2018-07-23T23:11:40.553Z,98633.98
2018-07-23T23:14:09.710Z,98624.03
2018-07-23T23:16:38.811Z,98626.61
2018-07-23T23:19:08.132Z,98620.45
2018-07-23T23:21:37.320Z,98620.63
2018-07-23T23:24:06.494Z,98626.19
2018-07-23T23:26:35.579Z,98625.25
2018-07-23T23:29:04.864Z,98620.20
2018-07-23T23:31:34.032Z,98624.03
2018-07-23T23:34:03.156Z,98616.46
2018-07-23T23:36:32.289Z,98617.56
2018-07-23T23:39:01.445Z,98626.19
2018-07-23T23:41:30.527Z,98619.09
2018-07-23T23:43:59.637Z,98621.55
2018-07-23T23:46:28.712Z,98617.64
2018-07-23T23:48:57.812Z,98622.12
2018-07-23T23:51:26.961Z,98624.11
2018-07-23T23:53:56.040Z,98625.05
2018-07-23T23:56:25.149Z,98625.84
2018-07-23T23:58:54.367Z,98616.67
